sensor_id;sensor_type;location;lat;lon;timestamp;temperature;humidity
5705;DHT22;2877;48.238;11.160;2023-06-01T00:01:45;13.00;99.90
5705;DHT22;2877;48.238;11.160;2023-06-01T00:04:11;12.90;99.90
5705;DHT22;2877;48.238;11.160;2023-06-01T00:06:38;12.80;99.90
5705;DHT22;2877;48.238;11.160;2023-06-01T00:09:04;12.80;99.90
5705;DHT22;2877;48.238;11.160;2023-06-01T00:11:30;12.70;99.90
5705;DHT22;2877;48.238;11.160;2023-06-01T00:13:56;12.60;99.90
5705;DHT22;2877;48.238;11.160;2023-06-01T00:16:22;12.70;99.90
5705;DHT22;2877;48.238;11.160;2023-06-01T00:18:48;12.60;99.90
5705;DHT22;2877;48.238;11.160;2023-06-01T00:21:14;12.60;99.90
5705;DHT22;2877;48.238;11.160;2023-06-01T00:23:40;12.60;99.90
5705;DHT22;2877;48.238;11.160;2023-06-01T00:26:07;12.50;99.90
5705;DHT22;2877;48.238;11.160;2023-06-01T00:28:33;12.50;99.90
5705;DHT22;2877;48.238;11.160;2023-06-01T00:30:58;12.40;99.90
5705;DHT22;2877;48.238;11.160;2023-06-01T00:33:24;12.30;99.90
5705;DHT22;2877;48.238;11.160;2023-06-01T00:35:50;12.20;99.90
5705;DHT22;2877;48.238;11.160;2023-06-01T00:38:15;12.10;99.90
5705;DHT22;2877;48.238;11.160;2023-06-01T00:40:41;12.10;99.90
5705;DHT22;2877;48.238;11.160;2023-06-01T00:43:08;12.00;99.90
5705;DHT22;2877;48.238;11.160;2023-06-01T00:45:34;12.00;99.90
5705;DHT22;2877;48.238;11.160;2023-06-01T00:47:59;12.10;99.90
5705;DHT22;2877;48.238;11.160;2023-06-01T00:50:25;12.00;99.90
5705;DHT22;2877;48.238;11.160;2023-06-01T00:52:51;12.00;99.90
5705;DHT22;2877;48.238;11.160;2023-06-01T00:55:19;11.90;99.90
5705;DHT22;2877;48.238;11.160;2023-06-01T00:57:45;11.90;99.90
5705;DHT22;2877;48.238;11.160;2023-06-01T01:00:12;11.90;99.90
5705;DHT22;2877;48.238;11.160;2023-06-01T01:02:39;12.00;99.90
5705;DHT22;2877;48.238;11.160;2023-06-01T01:05:05;12.00;99.90
5705;DHT22;2877;48.238;11.160;2023-06-01T01:13:07;11.90;99.90
5705;DHT22;2877;48.238;11.160;2023-06-01T01:15:38;11.90;99.90
5705;DHT22;2877;48.238;11.160;2023-06-01T01:18:22;11.80;99.90
5705;DHT22;2877;48.238;11.160;2023-06-01T01:20:53;11.80;99.90
5705;DHT22;2877;48.238;11.160;2023-06-01T01:28:35;11.80;99.90
5705;DHT22;2877;48.238;11.160;2023-06-01T01:31:04;11.80;99.90
5705;DHT22;2877;48.238;11.160;2023-06-01T01:33:32;11.70;99.90
5705;DHT22;2877;48.238;11.160;2023-06-01T01:35:59;11.70;99.90
5705;DHT22;2877;48.238;11.160;2023-06-01T01:38:25;11.70;99.90
5705;DHT22;2877;48.238;11.160;2023-06-01T01:40:51;11.60;99.90
5705;DHT22;2877;48.238;11.160;2023-06-01T01:43:21;11.60;99.90
5705;DHT22;2877;48.238;11.160;2023-06-01T01:45:51;11.50;99.90
5705;DHT22;2877;48.238;11.160;2023-06-01T01:48:31;11.50;99.90
5705;DHT22;2877;48.238;11.160;2023-06-01T01:51:03;11.50;99.90
5705;DHT22;2877;48.238;11.160;2023-06-01T01:53:31;11.50;99.90
5705;DHT22;2877;48.238;11.160;2023-06-01T01:55:58;11.40;99.90
5705;DHT22;2877;48.238;11.160;2023-06-01T01:58:24;11.40;99.90
5705;DHT22;2877;48.238;11.160;2023-06-01T02:00:52;11.30;99.90
5705;DHT22;2877;48.238;11.160;2023-06-01T02:03:18;11.30;99.90
5705;DHT22;2877;48.238;11.160;2023-06-01T02:05:44;11.30;99.90
5705;DHT22;2877;48.238;11.160;2023-06-01T02:08:10;11.20;99.90
5705;DHT22;2877;48.238;11.160;2023-06-01T02:10:36;11.20;99.90
5705;DHT22;2877;48.238;11.160;2023-06-01T02:13:03;11.20;99.90
5705;DHT22;2877;48.238;11.160;2023-06-01T02:15:28;11.30;99.90
5705;DHT22;2877;48.238;11.160;2023-06-01T02:17:54;11.30;99.90
5705;DHT22;2877;48.238;11.160;2023-06-01T02:20:20;11.20;99.90
5705;DHT22;2877;48.238;11.160;2023-06-01T02:22:45;11.20;99.90
5705;DHT22;2877;48.238;11.160;2023-06-01T02:25:11;11.10;99.90
5705;DHT22;2877;48.238;11.160;2023-06-01T02:27:37;11.00;99.90
5705;DHT22;2877;48.238;11.160;2023-06-01T02:30:03;10.90;99.90
5705;DHT22;2877;48.238;11.160;2023-06-01T02:32:28;10.90;99.90
5705;DHT22;2877;48.238;11.160;2023-06-01T02:34:56;10.80;99.90
5705;DHT22;2877;48.238;11.160;2023-06-01T02:37:21;10.70;99.90
5705;DHT22;2877;48.238;11.160;2023-06-01T02:39:47;10.70;99.90
5705;DHT22;2877;48.238;11.160;2023-06-01T02:42:13;10.80;99.90
5705;DHT22;2877;48.238;11.160;2023-06-01T02:44:38;10.80;99.90
5705;DHT22;2877;48.238;11.160;2023-06-01T02:47:04;10.80;99.90
5705;DHT22;2877;48.238;11.160;2023-06-01T02:49:30;10.80;99.90
5705;DHT22;2877;48.238;11.160;2023-06-01T02:51:56;10.80;99.90
5705;DHT22;2877;48.238;11.160;2023-06-01T02:54:21;10.90;99.90
5705;DHT22;2877;48.238;11.160;2023-06-01T02:56:47;10.80;99.90
5705;DHT22;2877;48.238;11.160;2023-06-01T02:59:12;10.80;99.90
5705;DHT22;2877;48.238;11.160;2023-06-01T03:01:38;10.80;99.90
5705;DHT22;2877;48.238;11.160;2023-06-01T03:04:04;10.80;99.90
5705;DHT22;2877;48.238;11.160;2023-06-01T03:06:30;10.70;99.90
5705;DHT22;2877;48.238;11.160;2023-06-01T03:09:03;10.60;99.90
5705;DHT22;2877;48.238;11.160;2023-06-01T03:11:29;10.50;99.90
5705;DHT22;2877;48.238;11.160;2023-06-01T03:13:55;10.50;99.90
5705;DHT22;2877;48.238;11.160;2023-06-01T03:16:22;10.40;99.90
5705;DHT22;2877;48.238;11.160;2023-06-01T03:18:48;10.40;99.90
5705;DHT22;2877;48.238;11.160;2023-06-01T03:21:14;10.40;99.90
5705;DHT22;2877;48.238;11.160;2023-06-01T03:23:41;10.40;99.90
5705;DHT22;2877;48.238;11.160;2023-06-01T03:26:10;10.40;99.90
5705;DHT22;2877;48.238;11.160;2023-06-01T03:28:38;10.40;99.90
5705;DHT22;2877;48.238;11.160;2023-06-01T03:31:04;10.40;99.90
5705;DHT22;2877;48.238;11.160;2023-06-01T03:33:29;10.50;99.90
5705;DHT22;2877;48.238;11.160;2023-06-01T03:35:55;10.50;99.90
5705;DHT22;2877;48.238;11.160;2023-06-01T03:38:21;10.40;99.90
5705;DHT22;2877;48.238;11.160;2023-06-01T03:40:47;10.50;99.90
5705;DHT22;2877;48.238;11.160;2023-06-01T03:43:12;10.50;99.90
5705;DHT22;2877;48.238;11.160;2023-06-01T03:45:38;10.50;99.90
5705;DHT22;2877;48.238;11.160;2023-06-01T03:48:04;10.50;99.90
5705;DHT22;2877;48.238;11.160;2023-06-01T03:50:29;10.50;99.90
5705;DHT22;2877;48.238;11.160;2023-06-01T03:52:55;10.50;99.90
5705;DHT22;2877;48.238;11.160;2023-06-01T03:55:21;10.60;99.90
5705;DHT22;2877;48.238;11.160;2023-06-01T03:57:48;10.60;99.90
5705;DHT22;2877;48.238;11.160;2023-06-01T04:00:13;10.70;99.90
5705;DHT22;2877;48.238;11.160;2023-06-01T04:02:56;10.70;99.90
5705;DHT22;2877;48.238;11.160;2023-06-01T04:05:23;10.70;99.90
5705;DHT22;2877;48.238;11.160;2023-06-01T04:07:51;10.80;99.90
5705;DHT22;2877;48.238;11.160;2023-06-01T04:10:17;10.90;99.90
5705;DHT22;2877;48.238;11.160;2023-06-01T04:12:44;10.90;99.90
5705;DHT22;2877;48.238;11.160;2023-06-01T04:15:11;11.00;99.90
5705;DHT22;2877;48.238;11.160;2023-06-01T04:17:38;11.10;99.90
5705;DHT22;2877;48.238;11.160;2023-06-01T04:20:05;11.20;99.90
5705;DHT22;2877;48.238;11.160;2023-06-01T04:22:32;11.20;99.90
5705;DHT22;2877;48.238;11.160;2023-06-01T04:24:57;11.30;99.90
5705;DHT22;2877;48.238;11.160;2023-06-01T04:27:23;11.30;99.90
5705;DHT22;2877;48.238;11.160;2023-06-01T04:29:50;11.40;99.90
5705;DHT22;2877;48.238;11.160;2023-06-01T04:32:15;11.50;99.90
5705;DHT22;2877;48.238;11.160;2023-06-01T04:34:47;11.60;99.90
5705;DHT22;2877;48.238;11.160;2023-06-01T04:37:15;11.60;99.90
5705;DHT22;2877;48.238;11.160;2023-06-01T04:39:41;11.70;99.90
5705;DHT22;2877;48.238;11.160;2023-06-01T04:42:08;11.80;99.90
5705;DHT22;2877;48.238;11.160;2023-06-01T04:44:33;11.90;99.90
5705;DHT22;2877;48.238;11.160;2023-06-01T04:46:59;12.00;99.90
5705;DHT22;2877;48.238;11.160;2023-06-01T04:49:29;12.10;99.90
5705;DHT22;2877;48.238;11.160;2023-06-01T04:51:55;12.20;99.90
5705;DHT22;2877;48.238;11.160;2023-06-01T04:54:20;12.20;99.90
5705;DHT22;2877;48.238;11.160;2023-06-01T04:56:46;12.30;99.90
5705;DHT22;2877;48.238;11.160;2023-06-01T04:59:12;12.30;99.90
5705;DHT22;2877;48.238;11.160;2023-06-01T05:01:38;12.40;99.90
5705;DHT22;2877;48.238;11.160;2023-06-01T05:04:04;12.50;99.90
5705;DHT22;2877;48.238;11.160;2023-06-01T05:06:30;12.60;99.90
5705;DHT22;2877;48.238;11.160;2023-06-01T05:08:55;12.80;99.90
5705;DHT22;2877;48.238;11.160;2023-06-01T05:11:21;12.90;99.90
5705;DHT22;2877;48.238;11.160;2023-06-01T05:13:47;13.00;99.90
5705;DHT22;2877;48.238;11.160;2023-06-01T05:16:13;13.10;99.90
5705;DHT22;2877;48.238;11.160;2023-06-01T05:18:38;13.10;99.90
5705;DHT22;2877;48.238;11.160;2023-06-01T05:21:04;13.10;99.90
5705;DHT22;2877;48.238;11.160;2023-06-01T05:23:29;13.20;99.90
5705;DHT22;2877;48.238;11.160;2023-06-01T05:25:57;13.30;99.90
5705;DHT22;2877;48.238;11.160;2023-06-01T05:28:32;13.40;99.90
5705;DHT22;2877;48.238;11.160;2023-06-01T05:30:58;13.50;99.90
5705;DHT22;2877;48.238;11.160;2023-06-01T05:33:24;13.70;99.90
5705;DHT22;2877;48.238;11.160;2023-06-01T05:35:49;13.70;99.90
5705;DHT22;2877;48.238;11.160;2023-06-01T05:38:15;13.80;99.90
5705;DHT22;2877;48.238;11.160;2023-06-01T05:40:41;13.90;99.90
5705;DHT22;2877;48.238;11.160;2023-06-01T05:43:06;14.00;99.90
5705;DHT22;2877;48.238;11.160;2023-06-01T05:45:33;14.10;99.90
5705;DHT22;2877;48.238;11.160;2023-06-01T05:47:59;14.30;99.90
5705;DHT22;2877;48.238;11.160;2023-06-01T05:50:24;14.50;99.90
5705;DHT22;2877;48.238;11.160;2023-06-01T05:52:50;14.50;99.90
5705;DHT22;2877;48.238;11.160;2023-06-01T05:55:16;14.60;99.90
5705;DHT22;2877;48.238;11.160;2023-06-01T05:57:42;14.70;99.90
5705;DHT22;2877;48.238;11.160;2023-06-01T06:00:08;14.80;99.90
5705;DHT22;2877;48.238;11.160;2023-06-01T06:02:36;15.00;99.90
5705;DHT22;2877;48.238;11.160;2023-06-01T06:05:02;15.10;99.90
5705;DHT22;2877;48.238;11.160;2023-06-01T06:07:29;15.20;99.90
5705;DHT22;2877;48.238;11.160;2023-06-01T06:09:55;15.40;99.90
5705;DHT22;2877;48.238;11.160;2023-06-01T06:12:21;15.50;99.90
5705;DHT22;2877;48.238;11.160;2023-06-01T06:14:46;15.60;99.90
5705;DHT22;2877;48.238;11.160;2023-06-01T06:17:12;15.80;99.90
5705;DHT22;2877;48.238;11.160;2023-06-01T06:19:38;15.90;99.90
5705;DHT22;2877;48.238;11.160;2023-06-01T06:22:04;16.10;99.90
5705;DHT22;2877;48.238;11.160;2023-06-01T06:24:29;16.20;99.90
5705;DHT22;2877;48.238;11.160;2023-06-01T06:26:55;16.30;99.90
5705;DHT22;2877;48.238;11.160;2023-06-01T06:29:21;16.50;99.90
5705;DHT22;2877;48.238;11.160;2023-06-01T06:31:46;16.70;99.90
5705;DHT22;2877;48.238;11.160;2023-06-01T06:34:12;16.90;99.90
5705;DHT22;2877;48.238;11.160;2023-06-01T06:36:38;17.10;99.90
5705;DHT22;2877;48.238;11.160;2023-06-01T06:39:04;17.20;99.90
5705;DHT22;2877;48.238;11.160;2023-06-01T06:41:29;17.30;99.90
5705;DHT22;2877;48.238;11.160;2023-06-01T06:43:55;17.50;99.90
5705;DHT22;2877;48.238;11.160;2023-06-01T06:46:21;17.70;99.90
5705;DHT22;2877;48.238;11.160;2023-06-01T06:48:46;17.70;99.90
5705;DHT22;2877;48.238;11.160;2023-06-01T06:51:12;17.80;99.90
5705;DHT22;2877;48.238;11.160;2023-06-01T06:53:37;17.90;99.90
5705;DHT22;2877;48.238;11.160;2023-06-01T06:56:03;17.90;99.90
5705;DHT22;2877;48.238;11.160;2023-06-01T06:58:29;18.00;99.90
5705;DHT22;2877;48.238;11.160;2023-06-01T07:00:54;18.20;99.90
5705;DHT22;2877;48.238;11.160;2023-06-01T07:03:20;18.30;99.80
5705;DHT22;2877;48.238;11.160;2023-06-01T07:05:45;18.40;99.90
5705;DHT22;2877;48.238;11.160;2023-06-01T07:08:11;18.40;99.90
5705;DHT22;2877;48.238;11.160;2023-06-01T07:10:37;18.50;99.90
5705;DHT22;2877;48.238;11.160;2023-06-01T07:13:02;18.60;99.90
5705;DHT22;2877;48.238;11.160;2023-06-01T07:15:28;18.70;99.40
5705;DHT22;2877;48.238;11.160;2023-06-01T07:17:53;18.90;99.00
5705;DHT22;2877;48.238;11.160;2023-06-01T07:20:19;19.00;98.90
5705;DHT22;2877;48.238;11.160;2023-06-01T07:22:44;19.10;97.70
5705;DHT22;2877;48.238;11.160;2023-06-01T07:25:10;19.30;97.30
5705;DHT22;2877;48.238;11.160;2023-06-01T07:27:38;19.50;97.20
5705;DHT22;2877;48.238;11.160;2023-06-01T07:30:09;19.50;96.90
5705;DHT22;2877;48.238;11.160;2023-06-01T07:32:35;19.60;96.80
5705;DHT22;2877;48.238;11.160;2023-06-01T07:35:03;19.70;96.90
5705;DHT22;2877;48.238;11.160;2023-06-01T07:37:30;19.80;96.20
5705;DHT22;2877;48.238;11.160;2023-06-01T07:39:57;19.90;96.40
5705;DHT22;2877;48.238;11.160;2023-06-01T07:42:22;19.80;95.60
5705;DHT22;2877;48.238;11.160;2023-06-01T07:44:48;19.90;95.70
5705;DHT22;2877;48.238;11.160;2023-06-01T07:47:14;20.00;94.90
5705;DHT22;2877;48.238;11.160;2023-06-01T07:49:39;20.00;94.90
5705;DHT22;2877;48.238;11.160;2023-06-01T07:52:05;19.90;95.60
5705;DHT22;2877;48.238;11.160;2023-06-01T07:54:32;19.90;96.00
5705;DHT22;2877;48.238;11.160;2023-06-01T07:56:58;20.30;95.60
5705;DHT22;2877;48.238;11.160;2023-06-01T07:59:24;20.50;94.90
5705;DHT22;2877;48.238;11.160;2023-06-01T08:01:50;20.80;93.90
5705;DHT22;2877;48.238;11.160;2023-06-01T08:04:17;20.70;94.30
5705;DHT22;2877;48.238;11.160;2023-06-01T08:06:46;20.70;93.50
5705;DHT22;2877;48.238;11.160;2023-06-01T08:09:12;20.60;93.80
5705;DHT22;2877;48.238;11.160;2023-06-01T08:11:37;20.50;93.50
5705;DHT22;2877;48.238;11.160;2023-06-01T08:14:03;20.70;94.80
5705;DHT22;2877;48.238;11.160;2023-06-01T08:16:30;20.90;93.30
5705;DHT22;2877;48.238;11.160;2023-06-01T08:18:56;21.00;92.70
5705;DHT22;2877;48.238;11.160;2023-06-01T08:21:23;21.10;93.20
5705;DHT22;2877;48.238;11.160;2023-06-01T08:23:50;21.20;92.50
5705;DHT22;2877;48.238;11.160;2023-06-01T08:26:18;21.30;91.60
5705;DHT22;2877;48.238;11.160;2023-06-01T08:28:44;21.40;91.60
5705;DHT22;2877;48.238;11.160;2023-06-01T08:31:20;21.40;91.90
5705;DHT22;2877;48.238;11.160;2023-06-01T08:33:46;21.60;92.20
5705;DHT22;2877;48.238;11.160;2023-06-01T08:36:12;21.80;90.90
5705;DHT22;2877;48.238;11.160;2023-06-01T08:38:39;21.70;91.20
5705;DHT22;2877;48.238;11.160;2023-06-01T08:41:14;21.80;90.30
5705;DHT22;2877;48.238;11.160;2023-06-01T08:43:44;22.00;90.40
5705;DHT22;2877;48.238;11.160;2023-06-01T08:46:12;22.10;90.20
5705;DHT22;2877;48.238;11.160;2023-06-01T08:48:40;22.30;90.90
5705;DHT22;2877;48.238;11.160;2023-06-01T08:51:06;22.40;90.30
5705;DHT22;2877;48.238;11.160;2023-06-01T08:53:32;22.70;90.00
5705;DHT22;2877;48.238;11.160;2023-06-01T08:55:58;22.60;89.10
5705;DHT22;2877;48.238;11.160;2023-06-01T08:58:24;22.80;89.40
5705;DHT22;2877;48.238;11.160;2023-06-01T09:00:51;22.80;87.30
5705;DHT22;2877;48.238;11.160;2023-06-01T09:03:19;22.50;86.00
5705;DHT22;2877;48.238;11.160;2023-06-01T09:05:45;22.70;86.60
5705;DHT22;2877;48.238;11.160;2023-06-01T09:08:11;23.00;89.30
5705;DHT22;2877;48.238;11.160;2023-06-01T09:10:37;23.20;84.40
5705;DHT22;2877;48.238;11.160;2023-06-01T09:13:03;23.50;82.60
5705;DHT22;2877;48.238;11.160;2023-06-01T09:15:28;23.70;83.00
5705;DHT22;2877;48.238;11.160;2023-06-01T09:18:06;23.80;82.20
5705;DHT22;2877;48.238;11.160;2023-06-01T09:20:31;24.00;81.90
5705;DHT22;2877;48.238;11.160;2023-06-01T09:22:57;24.00;80.30
5705;DHT22;2877;48.238;11.160;2023-06-01T09:25:25;24.00;79.90
5705;DHT22;2877;48.238;11.160;2023-06-01T09:27:53;24.10;81.20
5705;DHT22;2877;48.238;11.160;2023-06-01T09:30:20;24.30;77.30
5705;DHT22;2877;48.238;11.160;2023-06-01T09:32:47;24.60;79.10
5705;DHT22;2877;48.238;11.160;2023-06-01T09:35:23;24.60;76.40
5705;DHT22;2877;48.238;11.160;2023-06-01T09:38:02;24.70;74.50
5705;DHT22;2877;48.238;11.160;2023-06-01T09:40:31;24.80;74.40
5705;DHT22;2877;48.238;11.160;2023-06-01T09:42:57;25.00;69.50
5705;DHT22;2877;48.238;11.160;2023-06-01T09:45:23;25.10;70.00
5705;DHT22;2877;48.238;11.160;2023-06-01T09:47:49;25.20;70.30
5705;DHT22;2877;48.238;11.160;2023-06-01T09:50:35;25.00;67.50
5705;DHT22;2877;48.238;11.160;2023-06-01T09:53:02;24.90;69.40
5705;DHT22;2877;48.238;11.160;2023-06-01T09:55:28;24.90;67.80
5705;DHT22;2877;48.238;11.160;2023-06-01T09:58:19;24.90;67.10
5705;DHT22;2877;48.238;11.160;2023-06-01T10:00:47;24.90;66.80
5705;DHT22;2877;48.238;11.160;2023-06-01T10:03:14;25.10;64.00
5705;DHT22;2877;48.238;11.160;2023-06-01T10:05:40;25.20;65.00
5705;DHT22;2877;48.238;11.160;2023-06-01T10:08:06;25.50;63.50
5705;DHT22;2877;48.238;11.160;2023-06-01T10:10:32;25.50;63.40
5705;DHT22;2877;48.238;11.160;2023-06-01T10:12:58;25.70;64.30
5705;DHT22;2877;48.238;11.160;2023-06-01T10:15:24;25.70;63.30
5705;DHT22;2877;48.238;11.160;2023-06-01T10:17:50;25.70;61.20
5705;DHT22;2877;48.238;11.160;2023-06-01T10:20:16;25.80;63.20
5705;DHT22;2877;48.238;11.160;2023-06-01T10:22:42;26.10;64.60
5705;DHT22;2877;48.238;11.160;2023-06-01T10:25:10;26.50;62.00
5705;DHT22;2877;48.238;11.160;2023-06-01T10:27:41;26.40;60.30
5705;DHT22;2877;48.238;11.160;2023-06-01T10:30:08;26.30;59.80
5705;DHT22;2877;48.238;11.160;2023-06-01T10:35:03;26.20;59.50
5705;DHT22;2877;48.238;11.160;2023-06-01T10:37:29;26.20;59.40
5705;DHT22;2877;48.238;11.160;2023-06-01T10:42:43;26.40;59.80
5705;DHT22;2877;48.238;11.160;2023-06-01T10:45:35;26.60;60.00
5705;DHT22;2877;48.238;11.160;2023-06-01T10:48:02;27.10;59.50
5705;DHT22;2877;48.238;11.160;2023-06-01T10:50:29;27.20;58.20
5705;DHT22;2877;48.238;11.160;2023-06-01T10:52:55;27.00;58.30
5705;DHT22;2877;48.238;11.160;2023-06-01T10:55:22;27.10;57.30
5705;DHT22;2877;48.238;11.160;2023-06-01T10:57:48;27.20;56.40
5705;DHT22;2877;48.238;11.160;2023-06-01T11:03:07;27.70;57.30
5705;DHT22;2877;48.238;11.160;2023-06-01T11:05:44;27.60;55.40
5705;DHT22;2877;48.238;11.160;2023-06-01T11:13:22;27.60;55.90
5705;DHT22;2877;48.238;11.160;2023-06-01T11:18:46;28.40;54.30
5705;DHT22;2877;48.238;11.160;2023-06-01T11:21:19;28.40;54.80
5705;DHT22;2877;48.238;11.160;2023-06-01T11:23:50;28.50;54.10
5705;DHT22;2877;48.238;11.160;2023-06-01T11:26:18;28.50;53.30
5705;DHT22;2877;48.238;11.160;2023-06-01T11:28:48;28.60;53.20
5705;DHT22;2877;48.238;11.160;2023-06-01T11:31:15;28.60;53.50
5705;DHT22;2877;48.238;11.160;2023-06-01T11:33:47;28.40;53.90
5705;DHT22;2877;48.238;11.160;2023-06-01T11:36:13;28.30;52.90
5705;DHT22;2877;48.238;11.160;2023-06-01T11:38:42;28.40;53.40
5705;DHT22;2877;48.238;11.160;2023-06-01T11:41:08;28.60;53.40
5705;DHT22;2877;48.238;11.160;2023-06-01T11:43:34;28.10;53.20
5705;DHT22;2877;48.238;11.160;2023-06-01T11:48:26;28.00;52.30
5705;DHT22;2877;48.238;11.160;2023-06-01T11:50:52;27.80;53.40
5705;DHT22;2877;48.238;11.160;2023-06-01T11:53:17;27.80;52.40
5705;DHT22;2877;48.238;11.160;2023-06-01T11:55:53;27.70;53.00
5705;DHT22;2877;48.238;11.160;2023-06-01T11:58:27;28.10;52.60
5705;DHT22;2877;48.238;11.160;2023-06-01T12:00:53;28.80;50.70
5705;DHT22;2877;48.238;11.160;2023-06-01T12:03:19;28.70;51.00
5705;DHT22;2877;48.238;11.160;2023-06-01T12:05:45;29.20;51.40
5705;DHT22;2877;48.238;11.160;2023-06-01T12:08:22;29.20;51.30
5705;DHT22;2877;48.238;11.160;2023-06-01T12:10:51;29.90;51.30
5705;DHT22;2877;48.238;11.160;2023-06-01T12:13:19;30.30;50.00
5705;DHT22;2877;48.238;11.160;2023-06-01T12:15:45;30.30;49.00
5705;DHT22;2877;48.238;11.160;2023-06-01T12:18:11;30.20;48.00
5705;DHT22;2877;48.238;11.160;2023-06-01T12:20:43;30.40;48.80
5705;DHT22;2877;48.238;11.160;2023-06-01T12:25:57;30.50;49.90
5705;DHT22;2877;48.238;11.160;2023-06-01T12:28:25;29.90;49.50
5705;DHT22;2877;48.238;11.160;2023-06-01T12:31:14;29.20;51.30
5705;DHT22;2877;48.238;11.160;2023-06-01T12:33:41;28.80;52.50
5705;DHT22;2877;48.238;11.160;2023-06-01T12:36:08;28.40;51.20
5705;DHT22;2877;48.238;11.160;2023-06-01T12:38:54;28.70;49.30
5705;DHT22;2877;48.238;11.160;2023-06-01T12:41:20;28.50;50.40
5705;DHT22;2877;48.238;11.160;2023-06-01T12:43:47;28.90;50.50
5705;DHT22;2877;48.238;11.160;2023-06-01T12:48:44;29.90;48.60
5705;DHT22;2877;48.238;11.160;2023-06-01T12:51:12;30.00;47.00
5705;DHT22;2877;48.238;11.160;2023-06-01T12:53:39;30.50;47.00
5705;DHT22;2877;48.238;11.160;2023-06-01T12:56:05;30.90;45.90
5705;DHT22;2877;48.238;11.160;2023-06-01T12:58:30;30.80;44.10
5705;DHT22;2877;48.238;11.160;2023-06-01T13:00:56;30.80;43.70
5705;DHT22;2877;48.238;11.160;2023-06-01T13:03:22;31.60;44.00
5705;DHT22;2877;48.238;11.160;2023-06-01T13:05:48;32.80;43.60
5705;DHT22;2877;48.238;11.160;2023-06-01T13:08:15;33.90;42.00
5705;DHT22;2877;48.238;11.160;2023-06-01T13:10:44;34.40;40.50
5705;DHT22;2877;48.238;11.160;2023-06-01T13:13:10;34.20;39.70
5705;DHT22;2877;48.238;11.160;2023-06-01T13:15:44;34.10;38.50
5705;DHT22;2877;48.238;11.160;2023-06-01T13:18:11;33.80;38.60
5705;DHT22;2877;48.238;11.160;2023-06-01T13:20:37;34.00;39.30
5705;DHT22;2877;48.238;11.160;2023-06-01T13:23:04;35.00;38.70
5705;DHT22;2877;48.238;11.160;2023-06-01T13:25:30;35.70;37.70
5705;DHT22;2877;48.238;11.160;2023-06-01T13:27:56;35.70;36.90
5705;DHT22;2877;48.238;11.160;2023-06-01T13:30:21;35.60;37.30
5705;DHT22;2877;48.238;11.160;2023-06-01T13:32:47;34.80;37.60
5705;DHT22;2877;48.238;11.160;2023-06-01T13:35:13;34.90;38.70
5705;DHT22;2877;48.238;11.160;2023-06-01T13:37:39;34.80;37.80
5705;DHT22;2877;48.238;11.160;2023-06-01T13:40:05;35.30;37.40
5705;DHT22;2877;48.238;11.160;2023-06-01T13:42:31;35.40;37.40
5705;DHT22;2877;48.238;11.160;2023-06-01T13:44:58;35.50;36.20
5705;DHT22;2877;48.238;11.160;2023-06-01T13:47:23;36.10;36.70
5705;DHT22;2877;48.238;11.160;2023-06-01T13:49:49;36.40;34.90
5705;DHT22;2877;48.238;11.160;2023-06-01T13:52:15;37.00;34.70
5705;DHT22;2877;48.238;11.160;2023-06-01T13:54:40;37.40;34.00
5705;DHT22;2877;48.238;11.160;2023-06-01T13:57:06;37.70;33.90
5705;DHT22;2877;48.238;11.160;2023-06-01T13:59:33;37.50;34.40
5705;DHT22;2877;48.238;11.160;2023-06-01T14:02:02;36.50;34.40
5705;DHT22;2877;48.238;11.160;2023-06-01T14:04:28;34.80;36.60
5705;DHT22;2877;48.238;11.160;2023-06-01T14:06:54;33.00;38.20
5705;DHT22;2877;48.238;11.160;2023-06-01T14:09:21;32.00;40.60
5705;DHT22;2877;48.238;11.160;2023-06-01T14:11:47;33.00;39.70
5705;DHT22;2877;48.238;11.160;2023-06-01T14:14:12;33.90;38.30
5705;DHT22;2877;48.238;11.160;2023-06-01T14:16:38;34.70;38.20
5705;DHT22;2877;48.238;11.160;2023-06-01T14:19:03;35.10;36.30
5705;DHT22;2877;48.238;11.160;2023-06-01T14:21:29;35.70;35.60
5705;DHT22;2877;48.238;11.160;2023-06-01T14:23:56;35.50;35.00
5705;DHT22;2877;48.238;11.160;2023-06-01T14:26:22;35.40;33.50
5705;DHT22;2877;48.238;11.160;2023-06-01T14:28:48;35.70;34.00
5705;DHT22;2877;48.238;11.160;2023-06-01T14:31:13;36.70;34.30
5705;DHT22;2877;48.238;11.160;2023-06-01T14:33:39;37.20;33.90
5705;DHT22;2877;48.238;11.160;2023-06-01T14:36:05;36.90;32.60
5705;DHT22;2877;48.238;11.160;2023-06-01T14:38:31;36.80;32.50
5705;DHT22;2877;48.238;11.160;2023-06-01T14:40:56;36.50;33.60
5705;DHT22;2877;48.238;11.160;2023-06-01T14:43:22;36.40;32.80
5705;DHT22;2877;48.238;11.160;2023-06-01T14:45:47;36.80;33.30
5705;DHT22;2877;48.238;11.160;2023-06-01T14:48:13;35.30;34.40
5705;DHT22;2877;48.238;11.160;2023-06-01T14:50:38;34.80;36.00
5705;DHT22;2877;48.238;11.160;2023-06-01T14:53:04;34.40;35.20
5705;DHT22;2877;48.238;11.160;2023-06-01T14:55:30;34.70;35.70
5705;DHT22;2877;48.238;11.160;2023-06-01T14:57:55;34.30;34.90
5705;DHT22;2877;48.238;11.160;2023-06-01T15:00:21;34.00;35.00
5705;DHT22;2877;48.238;11.160;2023-06-01T15:02:47;33.70;36.60
5705;DHT22;2877;48.238;11.160;2023-06-01T15:05:13;33.60;36.70
5705;DHT22;2877;48.238;11.160;2023-06-01T15:07:38;32.80;37.10
5705;DHT22;2877;48.238;11.160;2023-06-01T15:10:05;32.30;36.10
5705;DHT22;2877;48.238;11.160;2023-06-01T15:12:30;31.70;36.70
5705;DHT22;2877;48.238;11.160;2023-06-01T15:14:56;31.00;38.50
5705;DHT22;2877;48.238;11.160;2023-06-01T15:17:22;30.30;40.30
5705;DHT22;2877;48.238;11.160;2023-06-01T15:19:47;29.70;40.70
5705;DHT22;2877;48.238;11.160;2023-06-01T15:22:13;29.40;41.30
5705;DHT22;2877;48.238;11.160;2023-06-01T15:24:39;29.40;42.30
5705;DHT22;2877;48.238;11.160;2023-06-01T15:27:09;28.80;43.00
5705;DHT22;2877;48.238;11.160;2023-06-01T15:29:34;28.70;42.90
5705;DHT22;2877;48.238;11.160;2023-06-01T15:32:03;28.70;42.60
5705;DHT22;2877;48.238;11.160;2023-06-01T15:34:29;28.50;42.50
5705;DHT22;2877;48.238;11.160;2023-06-01T15:36:55;28.60;43.10
5705;DHT22;2877;48.238;11.160;2023-06-01T15:39:21;29.00;42.40
5705;DHT22;2877;48.238;11.160;2023-06-01T15:41:46;29.00;42.00
5705;DHT22;2877;48.238;11.160;2023-06-01T15:44:12;28.70;41.30
5705;DHT22;2877;48.238;11.160;2023-06-01T15:46:38;28.60;42.00
5705;DHT22;2877;48.238;11.160;2023-06-01T15:49:03;28.20;42.60
5705;DHT22;2877;48.238;11.160;2023-06-01T15:51:29;28.40;43.60
5705;DHT22;2877;48.238;11.160;2023-06-01T15:53:55;28.10;42.70
5705;DHT22;2877;48.238;11.160;2023-06-01T15:56:20;28.10;43.10
5705;DHT22;2877;48.238;11.160;2023-06-01T15:58:47;28.10;42.40
5705;DHT22;2877;48.238;11.160;2023-06-01T16:01:17;28.30;42.60
5705;DHT22;2877;48.238;11.160;2023-06-01T16:03:43;28.50;43.20
5705;DHT22;2877;48.238;11.160;2023-06-01T16:06:09;28.30;41.20
5705;DHT22;2877;48.238;11.160;2023-06-01T16:08:36;28.10;42.30
5705;DHT22;2877;48.238;11.160;2023-06-01T16:11:01;27.80;42.60
5705;DHT22;2877;48.238;11.160;2023-06-01T16:13:27;27.60;42.70
5705;DHT22;2877;48.238;11.160;2023-06-01T16:15:52;27.70;44.20
5705;DHT22;2877;48.238;11.160;2023-06-01T16:18:18;27.60;44.30